Cost, TX (78614)

10:59 AM CDT on October 23, 2014 (GMT -0500)
3 Miles West of Cost | Change Station
CLOSE
Current Station
Personal Weather Station
Location: Cost, TX
Elevation: 361 ft
Nearby Weather Stations

Elev 361 ft 29.42 °N, 97.57 °W | Updated 10 minutes ago

Mostly Cloudy
Mostly Cloudy
69.5 °F
Feels Like 69.5 °F
N
2.0
Wind Variable Wind from ENE
Gusts 6.0 mph

Today
High -- | Low -- °F
--% Chance of Precip.
Yesterday
High -- | Low -- °F
Precip. -- in
7:36 AM 6:51 PM
Waning Crescent, 0% visible
Pressure 30.15 in
Visibility 7.0 miles
Clouds Scattered Clouds 3000 ft
Scattered Clouds 3800 ft
Mostly Cloudy 7000 ft
Dew Point 64 °F
Humidity 83%
Rainfall 0.00 in
Snow Depth Not available.
UV 2 out of 12
Pollen 5.40 out of 12
Ozone Good
Flu Activity Sporadic
METAR KT20 231535Z AUTO 05003KT 7SM -DZ SCT030 SCT038 BKN070 20/18 A3015 RMK AO2 T02020182

More Conditions Fewer Conditions

Pressure 30.15 in
Visibility 7.0 miles
Clouds Scattered Clouds 3000 ft
Scattered Clouds 3800 ft
Mostly Cloudy 7000 ft
Dew Point 64 °F
Humidity 83%
Rainfall 0.00 in
Snow Depth Not available.
UV 2 out of 12
Pollen 5.40 out of 12
Ozone Good
Flu Activity Sporadic
METAR KT20 231535Z AUTO 05003KT 7SM -DZ SCT030 SCT038 BKN070 20/18 A3015 RMK AO2 T02020182

More Conditions Fewer Conditions

Nowcast | as of 10:04 am CDT on October 23, 2014

Isolated...light showers will continue across the eastern portions of south central Texas through noon CDT. Most of the rain will fall east of U.S. Highway 281. These showers will generally move to the east and northeast around 15 mph. Rainfall totals will generally be a few hundredths of an inch or less.

×

10-Day Weather Forecast

Almanac

Astronomy

Oct. 23, 2014 Rise Set
Actual Time 7:36 AM CDT 6:51 PM CDT
Civil Twilight 7:12 AM CDT 7:15 PM CDT
Nautical Twilight 6:44 AM CDT 7:43 PM CDT
Astronomical Twilight 6:17 AM CDT 8:11 PM CDT
Moon 7:19 AM CDT 6:54 PM CDT
Length of Visible Light 12h 03m
Length of Day
11h 14m
Tomorrow will be 1m 39s shorter.
Waning Crescent, 0% of the Moon is Illuminated
Today
Waning Crescent
Oct 23
New
Oct 30
First Quarter
Nov 6
Full
Nov 14
Last Quarter

Today's Extremes

State Highs State Lows

Community

WunderPhotos

Upload Photos

1,764,288 photos uploaded!

WunderBlogs® & News

Nearby

Air Quality

  Air Quality AQ Index Pollutant
Yesterday Good
OZONE
Current Good
OZONE
Thursday Moderate
OZONE
Thursday Good
PM10
Friday Moderate
OZONE
Friday Good
PM10
Saturday Moderate
OZONE
Saturday Good
PM10
Sunday Good
OZONE
Sunday Good
PM10

Snow Depth

Station Depth Elevation
No new snow has been reported.

Earthquake Activity

City Distance Mag. Time & Date
No recent earthquake activity has been reported nearby.
Minimum magnitude displayed is 2.5.

Coastal Water Temperatures

Place Temperature
No Stations Reporting

Nearby Weather Stations